sensor_id;sensor_type;location;lat;lon;timestamp;P1;durP1;ratioP1;P2;durP2;ratioP2
13204;SDS011;6667;52.634;9.226;2023-07-22T03:42:49;8.57;;;5.73;;
13204;SDS011;6667;52.634;9.226;2023-07-22T03:45:17;9.63;;;5.90;;
13204;SDS011;6667;52.634;9.226;2023-07-22T03:47:44;14.17;;;5.83;;
13204;SDS011;6667;52.634;9.226;2023-07-22T03:50:12;9.43;;;5.30;;
13204;SDS011;6667;52.634;9.226;2023-07-22T03:52:39;10.43;;;5.47;;
13204;SDS011;6667;52.634;9.226;2023-07-22T03:55:06;9.77;;;5.57;;
13204;SDS011;6667;52.634;9.226;2023-07-22T03:57:33;11.23;;;6.07;;
13204;SDS011;6667;52.634;9.226;2023-07-22T04:00:02;10.63;;;5.63;;
13204;SDS011;6667;52.634;9.226;2023-07-22T04:02:30;11.83;;;5.33;;
13204;SDS011;6667;52.634;9.226;2023-07-22T04:04:56;11.73;;;5.97;;
13204;SDS011;6667;52.634;9.226;2023-07-22T04:07:23;14.30;;;6.17;;
13204;SDS011;6667;52.634;9.226;2023-07-22T04:09:50;9.87;;;5.80;;
13204;SDS011;6667;52.634;9.226;2023-07-22T04:12:17;10.43;;;6.03;;
13204;SDS011;6667;52.634;9.226;2023-07-22T04:14:43;10.03;;;5.23;;
13204;SDS011;6667;52.634;9.226;2023-07-22T04:17:11;12.23;;;6.33;;
13204;SDS011;6667;52.634;9.226;2023-07-22T04:19:40;9.83;;;5.57;;
13204;SDS011;6667;52.634;9.226;2023-07-22T04:22:06;10.33;;;5.40;;
13204;SDS011;6667;52.634;9.226;2023-07-22T04:24:33;9.00;;;5.93;;
13204;SDS011;6667;52.634;9.226;2023-07-22T04:27:00;8.63;;;5.43;;
13204;SDS011;6667;52.634;9.226;2023-07-22T04:29:27;11.27;;;5.80;;
13204;SDS011;6667;52.634;9.226;2023-07-22T04:31:56;10.33;;;5.40;;
13204;SDS011;6667;52.634;9.226;2023-07-22T04:34:25;12.27;;;5.87;;
13204;SDS011;6667;52.634;9.226;2023-07-22T04:36:54;15.20;;;5.90;;
13204;SDS011;6667;52.634;9.226;2023-07-22T04:39:21;11.43;;;5.63;;
13204;SDS011;6667;52.634;9.226;2023-07-22T04:41:48;7.73;;;4.87;;
13204;SDS011;6667;52.634;9.226;2023-07-22T04:44:14;12.70;;;5.80;;
13204;SDS011;6667;52.634;9.226;2023-07-22T04:46:42;10.57;;;5.27;;
13204;SDS011;6667;52.634;9.226;2023-07-22T04:49:09;9.40;;;5.77;;
13204;SDS011;6667;52.634;9.226;2023-07-22T04:51:37;12.20;;;5.97;;
13204;SDS011;6667;52.634;9.226;2023-07-22T04:54:04;11.07;;;5.17;;
13204;SDS011;6667;52.634;9.226;2023-07-22T04:56:31;12.80;;;6.17;;
13204;SDS011;6667;52.634;9.226;2023-07-22T04:58:57;16.13;;;5.67;;
13204;SDS011;6667;52.634;9.226;2023-07-22T05:01:24;11.33;;;5.83;;
13204;SDS011;6667;52.634;9.226;2023-07-22T05:03:51;12.13;;;5.80;;
13204;SDS011;6667;52.634;9.226;2023-07-22T05:06:20;11.97;;;5.40;;
13204;SDS011;6667;52.634;9.226;2023-07-22T05:08:48;9.07;;;5.77;;
13204;SDS011;6667;52.634;9.226;2023-07-22T05:11:14;12.90;;;6.13;;
13204;SDS011;6667;52.634;9.226;2023-07-22T05:13:41;9.20;;;5.23;;
13204;SDS011;6667;52.634;9.226;2023-07-22T05:16:08;10.93;;;5.73;;
13204;SDS011;6667;52.634;9.226;2023-07-22T05:18:34;12.63;;;5.53;;
13204;SDS011;6667;52.634;9.226;2023-07-22T05:21:03;13.07;;;6.43;;
13204;SDS011;6667;52.634;9.226;2023-07-22T05:23:29;20.57;;;5.80;;
13204;SDS011;6667;52.634;9.226;2023-07-22T05:25:57;10.20;;;6.40;;
13204;SDS011;6667;52.634;9.226;2023-07-22T05:28:24;13.10;;;6.33;;
13204;SDS011;6667;52.634;9.226;2023-07-22T05:30:51;12.70;;;5.43;;
13204;SDS011;6667;52.634;9.226;2023-07-22T05:33:17;11.37;;;5.83;;
13204;SDS011;6667;52.634;9.226;2023-07-22T05:35:44;15.27;;;6.90;;
13204;SDS011;6667;52.634;9.226;2023-07-22T05:38:11;9.77;;;5.37;;
13204;SDS011;6667;52.634;9.226;2023-07-22T05:40:38;11.97;;;6.23;;
13204;SDS011;6667;52.634;9.226;2023-07-22T05:43:06;11.57;;;5.87;;
13204;SDS011;6667;52.634;9.226;2023-07-22T05:45:32;10.77;;;5.87;;
13204;SDS011;6667;52.634;9.226;2023-07-22T05:47:59;12.17;;;6.53;;
13204;SDS011;6667;52.634;9.226;2023-07-22T05:50:26;10.00;;;5.50;;
13204;SDS011;6667;52.634;9.226;2023-07-22T05:52:52;11.40;;;6.10;;
13204;SDS011;6667;52.634;9.226;2023-07-22T05:55:19;13.93;;;5.43;;
13204;SDS011;6667;52.634;9.226;2023-07-22T05:57:46;11.50;;;6.07;;
13204;SDS011;6667;52.634;9.226;2023-07-22T06:00:14;12.37;;;6.27;;
13204;SDS011;6667;52.634;9.226;2023-07-22T06:02:42;15.93;;;6.93;;
13204;SDS011;6667;52.634;9.226;2023-07-22T06:05:09;13.20;;;6.10;;
13204;SDS011;6667;52.634;9.226;2023-07-22T06:07:35;9.70;;;5.97;;
13204;SDS011;6667;52.634;9.226;2023-07-22T06:10:02;12.50;;;6.27;;
13204;SDS011;6667;52.634;9.226;2023-07-22T06:12:29;11.20;;;6.13;;
13204;SDS011;6667;52.634;9.226;2023-07-22T06:14:56;10.90;;;6.23;;
13204;SDS011;6667;52.634;9.226;2023-07-22T06:17:24;11.90;;;5.97;;
13204;SDS011;6667;52.634;9.226;2023-07-22T06:19:51;9.40;;;6.37;;
13204;SDS011;6667;52.634;9.226;2023-07-22T06:22:18;9.80;;;5.80;;
13204;SDS011;6667;52.634;9.226;2023-07-22T06:24:45;10.50;;;5.87;;
13204;SDS011;6667;52.634;9.226;2023-07-22T06:27:11;9.37;;;5.97;;
13204;SDS011;6667;52.634;9.226;2023-07-22T06:29:38;10.43;;;7.03;;
13204;SDS011;6667;52.634;9.226;2023-07-22T06:32:05;12.40;;;6.17;;
13204;SDS011;6667;52.634;9.226;2023-07-22T06:34:34;12.27;;;5.80;;
13204;SDS011;6667;52.634;9.226;2023-07-22T06:37:00;12.07;;;6.13;;
13204;SDS011;6667;52.634;9.226;2023-07-22T06:39:28;10.73;;;5.70;;
13204;SDS011;6667;52.634;9.226;2023-07-22T06:41:54;10.50;;;6.23;;
13204;SDS011;6667;52.634;9.226;2023-07-22T06:44:21;13.27;;;6.17;;
13204;SDS011;6667;52.634;9.226;2023-07-22T06:46:48;13.00;;;6.70;;
13204;SDS011;6667;52.634;9.226;2023-07-22T06:49:14;13.83;;;6.80;;
13204;SDS011;6667;52.634;9.226;2023-07-22T06:51:42;9.57;;;6.67;;
13204;SDS011;6667;52.634;9.226;2023-07-22T06:54:09;9.27;;;5.73;;
13204;SDS011;6667;52.634;9.226;2023-07-22T06:56:36;10.00;;;5.70;;
13204;SDS011;6667;52.634;9.226;2023-07-22T06:59:02;11.80;;;6.33;;
13204;SDS011;6667;52.634;9.226;2023-07-22T07:01:29;10.53;;;5.97;;
13204;SDS011;6667;52.634;9.226;2023-07-22T07:03:56;13.27;;;6.73;;
13204;SDS011;6667;52.634;9.226;2023-07-22T07:06:22;9.33;;;5.43;;
13204;SDS011;6667;52.634;9.226;2023-07-22T07:08:50;10.43;;;5.63;;
13204;SDS011;6667;52.634;9.226;2023-07-22T07:11:17;13.13;;;5.87;;
13204;SDS011;6667;52.634;9.226;2023-07-22T07:13:44;14.20;;;6.20;;
13204;SDS011;6667;52.634;9.226;2023-07-22T07:16:20;9.90;;;6.07;;
13204;SDS011;6667;52.634;9.226;2023-07-22T07:18:47;10.07;;;5.87;;
13204;SDS011;6667;52.634;9.226;2023-07-22T07:21:14;9.53;;;5.73;;
13204;SDS011;6667;52.634;9.226;2023-07-22T07:23:41;8.20;;;5.27;;
13204;SDS011;6667;52.634;9.226;2023-07-22T07:26:09;7.53;;;5.07;;
13204;SDS011;6667;52.634;9.226;2023-07-22T07:28:36;10.80;;;6.20;;
13204;SDS011;6667;52.634;9.226;2023-07-22T07:31:02;9.63;;;6.07;;
13204;SDS011;6667;52.634;9.226;2023-07-22T07:33:29;11.10;;;6.80;;
13204;SDS011;6667;52.634;9.226;2023-07-22T07:35:56;12.60;;;6.70;;
13204;SDS011;6667;52.634;9.226;2023-07-22T07:38:22;10.37;;;6.03;;
13204;SDS011;6667;52.634;9.226;2023-07-22T07:40:51;12.67;;;6.37;;
13204;SDS011;6667;52.634;9.226;2023-07-22T07:43:19;12.57;;;6.33;;
13204;SDS011;6667;52.634;9.226;2023-07-22T07:45:46;16.63;;;6.93;;
13204;SDS011;6667;52.634;9.226;2023-07-22T07:48:13;9.63;;;5.68;;
13204;SDS011;6667;52.634;9.226;2023-07-22T07:50:40;12.50;;;6.13;;
13204;SDS011;6667;52.634;9.226;2023-07-22T07:53:06;10.00;;;5.83;;
13204;SDS011;6667;52.634;9.226;2023-07-22T07:55:33;13.35;;;6.15;;
13204;SDS011;6667;52.634;9.226;2023-07-22T07:58:00;9.75;;;6.35;;
13204;SDS011;6667;52.634;9.226;2023-07-22T08:00:28;10.13;;;5.63;;
13204;SDS011;6667;52.634;9.226;2023-07-22T08:02:54;8.90;;;5.68;;
13204;SDS011;6667;52.634;9.226;2023-07-22T08:05:21;9.55;;;6.38;;
13204;SDS011;6667;52.634;9.226;2023-07-22T08:07:48;10.15;;;5.90;;
13204;SDS011;6667;52.634;9.226;2023-07-22T08:10:15;9.35;;;6.53;;
13204;SDS011;6667;52.634;9.226;2023-07-22T08:12:41;8.98;;;5.70;;
13204;SDS011;6667;52.634;9.226;2023-07-22T08:15:08;9.88;;;5.82;;
13204;SDS011;6667;52.634;9.226;2023-07-22T08:17:37;11.63;;;5.95;;
13204;SDS011;6667;52.634;9.226;2023-07-22T08:20:04;11.73;;;5.72;;
13204;SDS011;6667;52.634;9.226;2023-07-22T08:22:33;8.52;;;5.75;;
13204;SDS011;6667;52.634;9.226;2023-07-22T08:24:59;9.43;;;6.13;;
13204;SDS011;6667;52.634;9.226;2023-07-22T08:27:26;10.52;;;6.13;;
13204;SDS011;6667;52.634;9.226;2023-07-22T08:29:53;11.25;;;5.80;;
13204;SDS011;6667;52.634;9.226;2023-07-22T08:32:20;11.52;;;6.13;;
13204;SDS011;6667;52.634;9.226;2023-07-22T08:34:48;7.43;;;5.40;;
13204;SDS011;6667;52.634;9.226;2023-07-22T08:37:14;8.60;;;5.32;;
13204;SDS011;6667;52.634;9.226;2023-07-22T08:39:41;8.00;;;5.53;;
13204;SDS011;6667;52.634;9.226;2023-07-22T08:42:08;11.05;;;5.65;;
13204;SDS011;6667;52.634;9.226;2023-07-22T08:44:36;9.63;;;6.20;;
13204;SDS011;6667;52.634;9.226;2023-07-22T08:47:08;8.63;;;5.35;;
13204;SDS011;6667;52.634;9.226;2023-07-22T08:49:40;7.47;;;4.82;;
13204;SDS011;6667;52.634;9.226;2023-07-22T08:52:11;7.32;;;5.60;;
13204;SDS011;6667;52.634;9.226;2023-07-22T08:54:40;8.98;;;5.32;;
13204;SDS011;6667;52.634;9.226;2023-07-22T08:57:07;6.60;;;4.70;;
13204;SDS011;6667;52.634;9.226;2023-07-22T08:59:35;6.22;;;4.90;;
13204;SDS011;6667;52.634;9.226;2023-07-22T09:02:02;6.85;;;5.25;;
13204;SDS011;6667;52.634;9.226;2023-07-22T09:04:30;8.23;;;5.97;;
13204;SDS011;6667;52.634;9.226;2023-07-22T09:06:57;7.32;;;4.38;;
13204;SDS011;6667;52.634;9.226;2023-07-22T09:09:25;6.82;;;5.30;;
13204;SDS011;6667;52.634;9.226;2023-07-22T09:11:52;7.13;;;4.88;;
13204;SDS011;6667;52.634;9.226;2023-07-22T09:14:20;9.68;;;6.00;;
13204;SDS011;6667;52.634;9.226;2023-07-22T09:16:47;7.97;;;4.90;;
13204;SDS011;6667;52.634;9.226;2023-07-22T09:19:13;10.00;;;5.07;;
13204;SDS011;6667;52.634;9.226;2023-07-22T09:21:40;9.73;;;5.18;;
13204;SDS011;6667;52.634;9.226;2023-07-22T09:26:51;7.00;;;4.32;;
13204;SDS011;6667;52.634;9.226;2023-07-22T09:29:18;8.40;;;4.47;;
13204;SDS011;6667;52.634;9.226;2023-07-22T09:31:59;8.32;;;4.60;;
13204;SDS011;6667;52.634;9.226;2023-07-22T09:34:26;9.48;;;4.72;;
13204;SDS011;6667;52.634;9.226;2023-07-22T09:36:53;6.30;;;4.40;;
13204;SDS011;6667;52.634;9.226;2023-07-22T09:39:21;7.90;;;5.13;;
13204;SDS011;6667;52.634;9.226;2023-07-22T09:41:48;8.30;;;5.43;;
13204;SDS011;6667;52.634;9.226;2023-07-22T09:44:16;9.05;;;5.18;;
13204;SDS011;6667;52.634;9.226;2023-07-22T09:46:46;6.20;;;4.65;;
13204;SDS011;6667;52.634;9.226;2023-07-22T09:49:14;7.45;;;4.65;;
13204;SDS011;6667;52.634;9.226;2023-07-22T09:51:43;11.32;;;5.53;;
13204;SDS011;6667;52.634;9.226;2023-07-22T09:54:10;7.82;;;4.25;;
13204;SDS011;6667;52.634;9.226;2023-07-22T09:56:43;7.25;;;4.97;;
13204;SDS011;6667;52.634;9.226;2023-07-22T09:59:11;10.05;;;5.88;;
13204;SDS011;6667;52.634;9.226;2023-07-22T10:01:39;7.97;;;5.40;;
13204;SDS011;6667;52.634;9.226;2023-07-22T10:04:08;6.28;;;4.80;;
13204;SDS011;6667;52.634;9.226;2023-07-22T10:06:36;6.82;;;5.25;;
13204;SDS011;6667;52.634;9.226;2023-07-22T10:09:05;10.00;;;5.22;;
13204;SDS011;6667;52.634;9.226;2023-07-22T10:11:37;6.95;;;4.57;;
13204;SDS011;6667;52.634;9.226;2023-07-22T10:14:05;5.80;;;3.97;;
13204;SDS011;6667;52.634;9.226;2023-07-22T10:16:31;6.32;;;4.35;;
13204;SDS011;6667;52.634;9.226;2023-07-22T10:19:00;7.43;;;5.20;;
13204;SDS011;6667;52.634;9.226;2023-07-22T10:21:27;5.30;;;4.43;;
13204;SDS011;6667;52.634;9.226;2023-07-22T10:23:55;6.90;;;4.55;;
13204;SDS011;6667;52.634;9.226;2023-07-22T10:26:22;6.60;;;4.13;;
13204;SDS011;6667;52.634;9.226;2023-07-22T10:28:48;5.35;;;4.63;;
13204;SDS011;6667;52.634;9.226;2023-07-22T10:31:16;5.25;;;4.50;;
13204;SDS011;6667;52.634;9.226;2023-07-22T10:33:44;6.35;;;4.85;;
13204;SDS011;6667;52.634;9.226;2023-07-22T10:36:14;5.55;;;4.50;;
13204;SDS011;6667;52.634;9.226;2023-07-22T10:38:42;5.82;;;4.60;;
13204;SDS011;6667;52.634;9.226;2023-07-22T10:41:12;7.82;;;5.13;;
13204;SDS011;6667;52.634;9.226;2023-07-22T10:43:41;7.63;;;5.00;;
13204;SDS011;6667;52.634;9.226;2023-07-22T10:46:19;8.52;;;5.78;;
13204;SDS011;6667;52.634;9.226;2023-07-22T10:49:02;5.63;;;4.55;;
13204;SDS011;6667;52.634;9.226;2023-07-22T10:51:36;7.90;;;4.97;;
13204;SDS011;6667;52.634;9.226;2023-07-22T10:54:03;6.07;;;5.15;;
13204;SDS011;6667;52.634;9.226;2023-07-22T10:56:37;6.45;;;5.30;;
13204;SDS011;6667;52.634;9.226;2023-07-22T10:59:04;8.27;;;4.78;;
13204;SDS011;6667;52.634;9.226;2023-07-22T11:01:31;5.43;;;3.67;;
13204;SDS011;6667;52.634;9.226;2023-07-22T11:04:06;6.93;;;4.45;;
13204;SDS011;6667;52.634;9.226;2023-07-22T11:06:37;6.38;;;3.85;;
13204;SDS011;6667;52.634;9.226;2023-07-22T11:09:04;5.97;;;4.85;;
13204;SDS011;6667;52.634;9.226;2023-07-22T11:11:35;4.97;;;4.20;;
13204;SDS011;6667;52.634;9.226;2023-07-22T11:14:15;6.47;;;4.15;;
13204;SDS011;6667;52.634;9.226;2023-07-22T11:16:44;6.25;;;4.88;;
13204;SDS011;6667;52.634;9.226;2023-07-22T11:19:12;7.13;;;4.38;;
13204;SDS011;6667;52.634;9.226;2023-07-22T11:21:41;5.63;;;4.50;;
13204;SDS011;6667;52.634;9.226;2023-07-22T11:24:08;4.82;;;4.32;;
13204;SDS011;6667;52.634;9.226;2023-07-22T11:26:35;5.68;;;5.00;;
13204;SDS011;6667;52.634;9.226;2023-07-22T11:29:03;6.30;;;4.93;;
13204;SDS011;6667;52.634;9.226;2023-07-22T11:31:33;7.13;;;4.50;;
13204;SDS011;6667;52.634;9.226;2023-07-22T11:34:01;5.45;;;4.68;;
13204;SDS011;6667;52.634;9.226;2023-07-22T11:36:28;5.10;;;4.57;;
13204;SDS011;6667;52.634;9.226;2023-07-22T11:39:02;7.20;;;4.70;;
13204;SDS011;6667;52.634;9.226;2023-07-22T11:41:30;5.78;;;4.15;;
13204;SDS011;6667;52.634;9.226;2023-07-22T11:43:57;6.18;;;4.57;;
13204;SDS011;6667;52.634;9.226;2023-07-22T11:46:24;5.30;;;3.95;;
13204;SDS011;6667;52.634;9.226;2023-07-22T11:48:51;6.32;;;4.13;;
13204;SDS011;6667;52.634;9.226;2023-07-22T11:51:19;5.28;;;3.53;;
13204;SDS011;6667;52.634;9.226;2023-07-22T11:53:47;3.35;;;3.05;;
13204;SDS011;6667;52.634;9.226;2023-07-22T11:56:18;5.43;;;3.63;;
13204;SDS011;6667;52.634;9.226;2023-07-22T11:58:50;4.20;;;3.20;;
13204;SDS011;6667;52.634;9.226;2023-07-22T12:01:17;7.07;;;3.30;;
13204;SDS011;6667;52.634;9.226;2023-07-22T12:03:44;3.70;;;3.15;;
13204;SDS011;6667;52.634;9.226;2023-07-22T12:06:12;3.50;;;3.20;;
13204;SDS011;6667;52.634;9.226;2023-07-22T12:08:42;4.22;;;3.40;;
13204;SDS011;6667;52.634;9.226;2023-07-22T12:11:15;3.60;;;3.22;;
13204;SDS011;6667;52.634;9.226;2023-07-22T12:13:44;5.18;;;3.58;;
13204;SDS011;6667;52.634;9.226;2023-07-22T12:16:20;4.47;;;3.63;;
13204;SDS011;6667;52.634;9.226;2023-07-22T12:18:48;4.60;;;3.20;;
13204;SDS011;6667;52.634;9.226;2023-07-22T12:21:15;6.75;;;3.53;;
13204;SDS011;6667;52.634;9.226;2023-07-22T12:23:42;4.80;;;3.72;;
13204;SDS011;6667;52.634;9.226;2023-07-22T12:26:09;4.45;;;4.03;;
13204;SDS011;6667;52.634;9.226;2023-07-22T12:28:36;6.88;;;4.82;;
13204;SDS011;6667;52.634;9.226;2023-07-22T12:31:04;4.78;;;4.20;;
13204;SDS011;6667;52.634;9.226;2023-07-22T12:33:30;6.25;;;4.45;;
13204;SDS011;6667;52.634;9.226;2023-07-22T12:35:57;5.20;;;4.55;;
13204;SDS011;6667;52.634;9.226;2023-07-22T12:38:24;6.45;;;4.25;;
13204;SDS011;6667;52.634;9.226;2023-07-22T12:40:50;6.90;;;4.47;;
13204;SDS011;6667;52.634;9.226;2023-07-22T12:43:17;6.65;;;4.10;;
13204;SDS011;6667;52.634;9.226;2023-07-22T12:45:44;7.30;;;4.80;;
13204;SDS011;6667;52.634;9.226;2023-07-22T12:48:12;5.00;;;4.47;;
13204;SDS011;6667;52.634;9.226;2023-07-22T12:50:39;5.38;;;4.35;;
13204;SDS011;6667;52.634;9.226;2023-07-22T12:53:05;4.60;;;3.40;;
13204;SDS011;6667;52.634;9.226;2023-07-22T12:55:33;5.93;;;4.13;;
13204;SDS011;6667;52.634;9.226;2023-07-22T12:58:00;4.30;;;3.78;;
13204;SDS011;6667;52.634;9.226;2023-07-22T13:00:27;4.20;;;3.60;;
13204;SDS011;6667;52.634;9.226;2023-07-22T13:02:54;6.63;;;3.78;;
13204;SDS011;6667;52.634;9.226;2023-07-22T13:05:23;5.53;;;4.10;;
13204;SDS011;6667;52.634;9.226;2023-07-22T13:07:50;7.30;;;3.85;;
13204;SDS011;6667;52.634;9.226;2023-07-22T13:10:18;4.18;;;3.50;;
13204;SDS011;6667;52.634;9.226;2023-07-22T13:12:46;4.78;;;4.20;;
13204;SDS011;6667;52.634;9.226;2023-07-22T13:15:13;6.10;;;4.07;;
13204;SDS011;6667;52.634;9.226;2023-07-22T13:17:40;5.50;;;3.75;;
13204;SDS011;6667;52.634;9.226;2023-07-22T13:20:07;4.90;;;3.90;;
13204;SDS011;6667;52.634;9.226;2023-07-22T13:22:37;5.20;;;4.45;;
13204;SDS011;6667;52.634;9.226;2023-07-22T13:25:05;7.80;;;4.28;;
13204;SDS011;6667;52.634;9.226;2023-07-22T13:27:33;8.45;;;4.75;;
13204;SDS011;6667;52.634;9.226;2023-07-22T13:30:01;4.90;;;4.00;;
13204;SDS011;6667;52.634;9.226;2023-07-22T13:32:27;6.20;;;4.80;;
13204;SDS011;6667;52.634;9.226;2023-07-22T13:34:55;6.50;;;4.47;;
13204;SDS011;6667;52.634;9.226;2023-07-22T13:37:22;5.28;;;4.47;;
13204;SDS011;6667;52.634;9.226;2023-07-22T13:39:50;7.97;;;4.78;;
13204;SDS011;6667;52.634;9.226;2023-07-22T13:42:18;5.40;;;4.78;;
13204;SDS011;6667;52.634;9.226;2023-07-22T13:44:44;8.20;;;4.65;;
13204;SDS011;6667;52.634;9.226;2023-07-22T13:47:11;8.10;;;5.00;;
13204;SDS011;6667;52.634;9.226;2023-07-22T13:49:38;8.82;;;5.00;;
13204;SDS011;6667;52.634;9.226;2023-07-22T13:52:04;6.55;;;4.50;;
13204;SDS011;6667;52.634;9.226;2023-07-22T13:54:31;7.47;;;4.65;;
13204;SDS011;6667;52.634;9.226;2023-07-22T13:56:59;8.07;;;5.10;;
13204;SDS011;6667;52.634;9.226;2023-07-22T13:59:26;6.65;;;5.32;;
13204;SDS011;6667;52.634;9.226;2023-07-22T14:01:52;6.93;;;5.40;;
13204;SDS011;6667;52.634;9.226;2023-07-22T14:04:19;6.68;;;5.60;;
13204;SDS011;6667;52.634;9.226;2023-07-22T14:06:46;6.70;;;5.32;;
13204;SDS011;6667;52.634;9.226;2023-07-22T14:09:12;8.00;;;5.18;;
13204;SDS011;6667;52.634;9.226;2023-07-22T14:11:39;7.10;;;5.55;;
13204;SDS011;6667;52.634;9.226;2023-07-22T14:14:07;8.30;;;6.55;;
13204;SDS011;6667;52.634;9.226;2023-07-22T14:16:34;6.72;;;5.43;;
13204;SDS011;6667;52.634;9.226;2023-07-22T14:19:01;7.10;;;5.88;;
13204;SDS011;6667;52.634;9.226;2023-07-22T14:21:27;9.88;;;6.18;;
13204;SDS011;6667;52.634;9.226;2023-07-22T14:23:54;7.82;;;6.35;;
13204;SDS011;6667;52.634;9.226;2023-07-22T14:26:21;7.18;;;5.15;;
13204;SDS011;6667;52.634;9.226;2023-07-22T14:28:47;6.32;;;5.28;;
13204;SDS011;6667;52.634;9.226;2023-07-22T14:31:15;7.68;;;5.20;;
13204;SDS011;6667;52.634;9.226;2023-07-22T14:33:42;8.15;;;4.35;;
13204;SDS011;6667;52.634;9.226;2023-07-22T14:36:09;6.32;;;4.70;;
13204;SDS011;6667;52.634;9.226;2023-07-22T14:38:35;6.47;;;5.18;;
13204;SDS011;6667;52.634;9.226;2023-07-22T14:41:02;5.75;;;4.63;;
13204;SDS011;6667;52.634;9.226;2023-07-22T14:43:29;6.50;;;4.75;;
13204;SDS011;6667;52.634;9.226;2023-07-22T14:45:55;5.75;;;4.72;;
13204;SDS011;6667;52.634;9.226;2023-07-22T14:48:23;7.45;;;4.55;;
13204;SDS011;6667;52.634;9.226;2023-07-22T14:50:50;6.28;;;4.70;;
13204;SDS011;6667;52.634;9.226;2023-07-22T14:53:17;5.47;;;4.72;;
13204;SDS011;6667;52.634;9.226;2023-07-22T14:55:44;9.80;;;4.97;;
13204;SDS011;6667;52.634;9.226;2023-07-22T14:58:10;6.97;;;5.00;;
13204;SDS011;6667;52.634;9.226;2023-07-22T15:00:37;7.82;;;4.72;;
13204;SDS011;6667;52.634;9.226;2023-07-22T15:03:04;9.02;;;5.15;;
13204;SDS011;6667;52.634;9.226;2023-07-22T15:05:32;6.28;;;5.53;;
13204;SDS011;6667;52.634;9.226;2023-07-22T15:07:58;9.25;;;5.47;;
13204;SDS011;6667;52.634;9.226;2023-07-22T15:10:27;5.55;;;4.80;;
13204;SDS011;6667;52.634;9.226;2023-07-22T15:12:53;7.65;;;5.65;;
13204;SDS011;6667;52.634;9.226;2023-07-22T15:15:20;5.88;;;5.22;;
13204;SDS011;6667;52.634;9.226;2023-07-22T15:17:47;5.88;;;5.03;;
13204;SDS011;6667;52.634;9.226;2023-07-22T15:20:14;7.55;;;5.38;;
13204;SDS011;6667;52.634;9.226;2023-07-22T15:22:42;5.72;;;5.13;;
13204;SDS011;6667;52.634;9.226;2023-07-22T15:25:09;7.07;;;5.53;;
13204;SDS011;6667;52.634;9.226;2023-07-22T15:27:36;6.55;;;5.10;;
13204;SDS011;6667;52.634;9.226;2023-07-22T15:30:03;6.97;;;5.35;;
13204;SDS011;6667;52.634;9.226;2023-07-22T15:32:31;8.05;;;4.50;;
13204;SDS011;6667;52.634;9.226;2023-07-22T15:34:57;6.35;;;4.70;;
13204;SDS011;6667;52.634;9.226;2023-07-22T15:37:24;6.00;;;5.05;;
13204;SDS011;6667;52.634;9.226;2023-07-22T15:39:52;5.10;;;3.97;;
13204;SDS011;6667;52.634;9.226;2023-07-22T15:42:19;4.82;;;4.00;;
13204;SDS011;6667;52.634;9.226;2023-07-22T15:44:45;4.55;;;3.83;;
13204;SDS011;6667;52.634;9.226;2023-07-22T15:47:12;4.07;;;3.70;;
13204;SDS011;6667;52.634;9.226;2023-07-22T15:49:39;5.78;;;3.70;;
13204;SDS011;6667;52.634;9.226;2023-07-22T15:52:06;5.20;;;3.60;;
13204;SDS011;6667;52.634;9.226;2023-07-22T15:54:33;4.65;;;3.88;;
13204;SDS011;6667;52.634;9.226;2023-07-22T15:57:01;4.38;;;3.95;;
13204;SDS011;6667;52.634;9.226;2023-07-22T15:59:28;5.38;;;3.85;;
13204;SDS011;6667;52.634;9.226;2023-07-22T16:01:55;3.90;;;3.60;;
13204;SDS011;6667;52.634;9.226;2023-07-22T16:04:22;5.70;;;4.00;;
13204;SDS011;6667;52.634;9.226;2023-07-22T16:06:48;6.10;;;3.28;;
13204;SDS011;6667;52.634;9.226;2023-07-22T16:09:15;6.93;;;4.00;;
13204;SDS011;6667;52.634;9.226;2023-07-22T16:11:42;5.97;;;3.83;;
13204;SDS011;6667;52.634;9.226;2023-07-22T16:14:13;4.25;;;3.65;;
13204;SDS011;6667;52.634;9.226;2023-07-22T16:16:40;8.93;;;4.07;;
13204;SDS011;6667;52.634;9.226;2023-07-22T16:19:07;4.97;;;3.92;;
13204;SDS011;6667;52.634;9.226;2023-07-22T16:21:34;7.70;;;3.50;;
13204;SDS011;6667;52.634;9.226;2023-07-22T16:24:00;6.15;;;4.00;;
13204;SDS011;6667;52.634;9.226;2023-07-22T16:26:27;5.60;;;3.60;;
13204;SDS011;6667;52.634;9.226;2023-07-22T16:28:54;4.88;;;3.40;;
13204;SDS011;6667;52.634;9.226;2023-07-22T16:31:22;3.90;;;2.97;;
13204;SDS011;6667;52.634;9.226;2023-07-22T16:33:49;3.10;;;2.80;;
13204;SDS011;6667;52.634;9.226;2023-07-22T16:36:16;3.67;;;2.97;;
13204;SDS011;6667;52.634;9.226;2023-07-22T16:38:43;4.45;;;2.72;;
13204;SDS011;6667;52.634;9.226;2023-07-22T16:41:09;5.18;;;2.80;;
13204;SDS011;6667;52.634;9.226;2023-07-22T16:43:36;2.85;;;2.55;;
13204;SDS011;6667;52.634;9.226;2023-07-22T16:46:03;3.97;;;3.13;;
13204;SDS011;6667;52.634;9.226;2023-07-22T16:48:31;3.20;;;2.83;;
13204;SDS011;6667;52.634;9.226;2023-07-22T16:50:58;3.63;;;3.10;;
13204;SDS011;6667;52.634;9.226;2023-07-22T16:53:25;6.68;;;4.05;;
13204;SDS011;6667;52.634;9.226;2023-07-22T16:55:52;4.75;;;3.45;;
13204;SDS011;6667;52.634;9.226;2023-07-22T16:58:19;4.40;;;3.80;;
13204;SDS011;6667;52.634;9.226;2023-07-22T17:00:46;3.63;;;3.13;;
13204;SDS011;6667;52.634;9.226;2023-07-22T17:03:13;7.18;;;4.22;;
13204;SDS011;6667;52.634;9.226;2023-07-22T17:05:41;5.20;;;3.47;;
13204;SDS011;6667;52.634;9.226;2023-07-22T17:08:08;6.72;;;4.32;;
13204;SDS011;6667;52.634;9.226;2023-07-22T17:10:35;5.18;;;4.35;;
13204;SDS011;6667;52.634;9.226;2023-07-22T17:13:02;7.25;;;4.50;;
13204;SDS011;6667;52.634;9.226;2023-07-22T17:15:28;7.20;;;4.55;;
13204;SDS011;6667;52.634;9.226;2023-07-22T17:17:55;5.10;;;4.13;;
13204;SDS011;6667;52.634;9.226;2023-07-22T17:20:22;5.40;;;3.90;;
13204;SDS011;6667;52.634;9.226;2023-07-22T17:22:51;5.75;;;4.28;;
13204;SDS011;6667;52.634;9.226;2023-07-22T17:25:18;5.32;;;4.28;;
13204;SDS011;6667;52.634;9.226;2023-07-22T17:27:44;5.45;;;4.00;;
13204;SDS011;6667;52.634;9.226;2023-07-22T17:30:11;5.75;;;3.80;;
13204;SDS011;6667;52.634;9.226;2023-07-22T17:32:38;6.00;;;4.63;;
13204;SDS011;6667;52.634;9.226;2023-07-22T17:35:05;6.50;;;3.90;;
13204;SDS011;6667;52.634;9.226;2023-07-22T17:37:32;4.43;;;3.97;;
13204;SDS011;6667;52.634;9.226;2023-07-22T17:40:00;5.78;;;4.25;;
13204;SDS011;6667;52.634;9.226;2023-07-22T17:42:27;5.72;;;5.13;;
13204;SDS011;6667;52.634;9.226;2023-07-22T17:44:54;8.52;;;4.57;;
13204;SDS011;6667;52.634;9.226;2023-07-22T17:47:21;5.50;;;4.60;;
13204;SDS011;6667;52.634;9.226;2023-07-22T17:49:48;7.43;;;5.40;;
13204;SDS011;6667;52.634;9.226;2023-07-22T17:52:15;5.50;;;4.32;;
13204;SDS011;6667;52.634;9.226;2023-07-22T17:54:41;4.25;;;3.85;;
13204;SDS011;6667;52.634;9.226;2023-07-22T17:57:10;7.75;;;4.50;;
13204;SDS011;6667;52.634;9.226;2023-07-22T17:59:37;6.35;;;4.47;;
13204;SDS011;6667;52.634;9.226;2023-07-22T18:02:04;8.48;;;4.78;;
13204;SDS011;6667;52.634;9.226;2023-07-22T18:04:32;6.38;;;4.47;;
13204;SDS011;6667;52.634;9.226;2023-07-22T18:06:59;5.65;;;4.45;;
13204;SDS011;6667;52.634;9.226;2023-07-22T18:09:28;4.95;;;4.22;;
13204;SDS011;6667;52.634;9.226;2023-07-22T18:11:55;6.60;;;4.20;;
13204;SDS011;6667;52.634;9.226;2023-07-22T18:14:23;7.05;;;4.90;;
13204;SDS011;6667;52.634;9.226;2023-07-22T18:16:49;5.47;;;4.57;;
13204;SDS011;6667;52.634;9.226;2023-07-22T18:19:16;7.72;;;4.75;;
13204;SDS011;6667;52.634;9.226;2023-07-22T18:21:43;7.15;;;4.50;;
13204;SDS011;6667;52.634;9.226;2023-07-22T18:24:09;6.88;;;5.10;;
13204;SDS011;6667;52.634;9.226;2023-07-22T18:26:36;7.28;;;4.93;;
13204;SDS011;6667;52.634;9.226;2023-07-22T18:29:03;5.88;;;4.80;;
13204;SDS011;6667;52.634;9.226;2023-07-22T18:31:31;5.75;;;4.47;;
13204;SDS011;6667;52.634;9.226;2023-07-22T18:33:58;7.57;;;5.38;;
13204;SDS011;6667;52.634;9.226;2023-07-22T18:36:24;6.95;;;4.68;;
13204;SDS011;6667;52.634;9.226;2023-07-22T18:38:51;9.43;;;5.65;;
13204;SDS011;6667;52.634;9.226;2023-07-22T18:41:18;5.65;;;4.95;;
13204;SDS011;6667;52.634;9.226;2023-07-22T18:43:45;6.15;;;4.95;;